sensor_id;sensor_type;location;lat;lon;timestamp;pressure;altitude;pressure_sealevel;temperature;humidity
9738;BME280;4908;47.446;13.900;2023-07-09T00:02:20;93423.19;;;17.04;100.00
9738;BME280;4908;47.446;13.900;2023-07-09T00:04:46;93436.47;;;16.91;100.00
9738;BME280;4908;47.446;13.900;2023-07-09T00:07:18;93427.63;;;16.87;100.00
9738;BME280;4908;47.446;13.900;2023-07-09T00:09:46;93429.97;;;16.85;100.00
9738;BME280;4908;47.446;13.900;2023-07-09T00:12:15;93420.13;;;16.68;100.00
9738;BME280;4908;47.446;13.900;2023-07-09T00:14:42;93427.56;;;16.61;100.00
9738;BME280;4908;47.446;13.900;2023-07-09T00:17:10;93430.22;;;16.64;100.00
9738;BME280;4908;47.446;13.900;2023-07-09T00:19:37;93427.97;;;16.56;100.00
9738;BME280;4908;47.446;13.900;2023-07-09T00:22:13;93427.94;;;16.59;100.00
9738;BME280;4908;47.446;13.900;2023-07-09T00:24:42;93431.53;;;16.49;100.00
9738;BME280;4908;47.446;13.900;2023-07-09T00:27:11;93429.00;;;16.28;100.00
9738;BME280;4908;47.446;13.900;2023-07-09T00:29:40;93436.44;;;16.17;100.00
9738;BME280;4908;47.446;13.900;2023-07-09T00:32:11;93433.47;;;16.04;100.00
9738;BME280;4908;47.446;13.900;2023-07-09T00:34:40;93426.97;;;15.95;100.00
9738;BME280;4908;47.446;13.900;2023-07-09T00:37:10;93440.06;;;16.00;100.00
9738;BME280;4908;47.446;13.900;2023-07-09T00:39:38;93443.50;;;16.04;100.00
9738;BME280;4908;47.446;13.900;2023-07-09T00:42:12;93436.91;;;16.05;100.00
9738;BME280;4908;47.446;13.900;2023-07-09T00:44:42;93436.53;;;16.03;100.00
9738;BME280;4908;47.446;13.900;2023-07-09T00:47:18;93441.84;;;16.17;100.00
9738;BME280;4908;47.446;13.900;2023-07-09T00:49:49;93441.41;;;16.22;100.00
9738;BME280;4908;47.446;13.900;2023-07-09T00:52:23;93439.47;;;16.26;100.00
9738;BME280;4908;47.446;13.900;2023-07-09T00:54:52;93445.22;;;16.28;100.00
9738;BME280;4908;47.446;13.900;2023-07-09T00:57:23;93448.41;;;16.16;100.00
9738;BME280;4908;47.446;13.900;2023-07-09T00:59:56;93446.88;;;16.15;100.00
9738;BME280;4908;47.446;13.900;2023-07-09T01:02:25;93440.28;;;16.20;100.00
9738;BME280;4908;47.446;13.900;2023-07-09T01:04:55;93446.81;;;16.22;100.00
9738;BME280;4908;47.446;13.900;2023-07-09T01:07:26;93448.34;;;16.23;100.00
9738;BME280;4908;47.446;13.900;2023-07-09T01:09:53;93448.41;;;16.16;100.00
9738;BME280;4908;47.446;13.900;2023-07-09T01:12:22;93444.16;;;16.15;100.00
9738;BME280;4908;47.446;13.900;2023-07-09T01:14:49;93444.97;;;16.12;100.00
9738;BME280;4908;47.446;13.900;2023-07-09T01:17:20;93435.50;;;15.90;100.00
9738;BME280;4908;47.446;13.900;2023-07-09T01:19:50;93447.03;;;15.94;100.00
9738;BME280;4908;47.446;13.900;2023-07-09T01:22:19;93441.22;;;15.99;100.00
9738;BME280;4908;47.446;13.900;2023-07-09T01:24:53;93440.13;;;15.93;100.00
9738;BME280;4908;47.446;13.900;2023-07-09T01:27:23;93442.47;;;15.87;100.00
9738;BME280;4908;47.446;13.900;2023-07-09T01:29:52;93445.59;;;15.82;100.00
9738;BME280;4908;47.446;13.900;2023-07-09T01:32:20;93454.03;;;15.88;100.00
9738;BME280;4908;47.446;13.900;2023-07-09T01:34:51;93452.25;;;15.67;100.00
9738;BME280;4908;47.446;13.900;2023-07-09T01:37:23;93451.75;;;15.83;100.00
9738;BME280;4908;47.446;13.900;2023-07-09T01:39:51;93459.56;;;15.70;100.00
9738;BME280;4908;47.446;13.900;2023-07-09T01:42:19;93456.47;;;15.72;100.00
9738;BME280;4908;47.446;13.900;2023-07-09T01:44:48;93454.94;;;15.71;100.00
9738;BME280;4908;47.446;13.900;2023-07-09T01:47:16;93454.19;;;15.67;100.00
9738;BME280;4908;47.446;13.900;2023-07-09T01:49:42;93454.97;;;15.67;100.00
9738;BME280;4908;47.446;13.900;2023-07-09T01:52:12;93456.94;;;15.60;100.00
9738;BME280;4908;47.446;13.900;2023-07-09T01:54:42;93451.19;;;15.51;100.00
9738;BME280;4908;47.446;13.900;2023-07-09T01:57:17;93468.63;;;15.43;100.00
9738;BME280;4908;47.446;13.900;2023-07-09T01:59:49;93472.47;;;15.42;100.00
9738;BME280;4908;47.446;13.900;2023-07-09T02:02:16;93474.00;;;15.43;100.00
9738;BME280;4908;47.446;13.900;2023-07-09T02:04:46;93475.19;;;15.35;100.00
9738;BME280;4908;47.446;13.900;2023-07-09T02:07:14;93478.69;;;15.24;100.00
9738;BME280;4908;47.446;13.900;2023-07-09T02:09:42;93476.38;;;15.26;100.00
9738;BME280;4908;47.446;13.900;2023-07-09T02:12:10;93481.00;;;15.22;100.00
9738;BME280;4908;47.446;13.900;2023-07-09T02:14:37;93479.16;;;14.98;100.00
9738;BME280;4908;47.446;13.900;2023-07-09T02:17:04;93487.25;;;15.05;100.00
9738;BME280;4908;47.446;13.900;2023-07-09T02:19:31;93492.25;;;15.07;100.00
9738;BME280;4908;47.446;13.900;2023-07-09T02:21:58;93485.75;;;14.94;100.00
9738;BME280;4908;47.446;13.900;2023-07-09T02:24:25;93478.41;;;14.94;100.00
9738;BME280;4908;47.446;13.900;2023-07-09T02:26:54;93481.53;;;14.89;100.00
9738;BME280;4908;47.446;13.900;2023-07-09T02:29:22;93482.34;;;14.62;100.00
9738;BME280;4908;47.446;13.900;2023-07-09T02:31:50;93486.94;;;14.82;100.00
9738;BME280;4908;47.446;13.900;2023-07-09T02:34:17;93482.31;;;14.79;100.00
9738;BME280;4908;47.446;13.900;2023-07-09T02:36:44;93481.16;;;14.80;100.00
9738;BME280;4908;47.446;13.900;2023-07-09T02:39:12;93487.72;;;14.86;100.00
9738;BME280;4908;47.446;13.900;2023-07-09T02:41:40;93483.88;;;14.73;100.00
9738;BME280;4908;47.446;13.900;2023-07-09T02:44:08;93489.25;;;14.80;100.00
9738;BME280;4908;47.446;13.900;2023-07-09T02:46:35;93492.75;;;14.70;100.00
9738;BME280;4908;47.446;13.900;2023-07-09T02:49:03;93500.06;;;14.73;100.00
9738;BME280;4908;47.446;13.900;2023-07-09T02:51:30;93488.16;;;14.53;100.00
9738;BME280;4908;47.446;13.900;2023-07-09T02:53:59;93496.22;;;14.60;100.00
9738;BME280;4908;47.446;13.900;2023-07-09T02:56:27;93495.44;;;14.63;100.00
9738;BME280;4908;47.446;13.900;2023-07-09T02:58:54;93496.22;;;14.64;100.00
9738;BME280;4908;47.446;13.900;2023-07-09T03:01:23;93493.91;;;14.52;100.00
9738;BME280;4908;47.446;13.900;2023-07-09T03:03:52;93496.63;;;14.55;100.00
9738;BME280;4908;47.446;13.900;2023-07-09T03:06:20;93500.84;;;14.56;100.00
9738;BME280;4908;47.446;13.900;2023-07-09T03:08:47;93508.56;;;14.51;100.00
9738;BME280;4908;47.446;13.900;2023-07-09T03:11:15;93507.03;;;14.46;100.00
9738;BME280;4908;47.446;13.900;2023-07-09T03:13:43;93505.84;;;14.58;100.00
9738;BME280;4908;47.446;13.900;2023-07-09T03:16:10;93505.50;;;14.45;100.00
9738;BME280;4908;47.446;13.900;2023-07-09T03:18:38;93502.81;;;14.45;100.00
9738;BME280;4908;47.446;13.900;2023-07-09T03:21:05;93509.72;;;14.32;100.00
9738;BME280;4908;47.446;13.900;2023-07-09T03:23:32;93515.88;;;14.08;100.00
9738;BME280;4908;47.446;13.900;2023-07-09T03:25:59;93520.47;;;14.11;100.00
9738;BME280;4908;47.446;13.900;2023-07-09T03:28:26;93520.88;;;14.02;100.00
9738;BME280;4908;47.446;13.900;2023-07-09T03:30:54;93524.34;;;14.06;100.00
9738;BME280;4908;47.446;13.900;2023-07-09T03:33:21;93517.00;;;14.07;100.00
9738;BME280;4908;47.446;13.900;2023-07-09T03:35:50;93520.47;;;14.04;100.00
9738;BME280;4908;47.446;13.900;2023-07-09T03:38:18;93530.09;;;13.98;100.00
9738;BME280;4908;47.446;13.900;2023-07-09T03:40:45;93533.94;;;14.04;100.00
9738;BME280;4908;47.446;13.900;2023-07-09T03:43:11;93527.00;;;14.03;100.00
9738;BME280;4908;47.446;13.900;2023-07-09T03:45:39;93535.50;;;14.12;100.00
9738;BME280;4908;47.446;13.900;2023-07-09T03:48:07;93528.56;;;14.11;100.00
9738;BME280;4908;47.446;13.900;2023-07-09T03:50:34;93533.16;;;14.03;100.00
9738;BME280;4908;47.446;13.900;2023-07-09T03:53:03;93539.72;;;14.06;100.00
9738;BME280;4908;47.446;13.900;2023-07-09T03:55:30;93535.13;;;14.10;100.00
9738;BME280;4908;47.446;13.900;2023-07-09T03:57:58;93536.25;;;13.95;100.00
9738;BME280;4908;47.446;13.900;2023-07-09T04:00:24;93544.31;;;13.88;100.00
9738;BME280;4908;47.446;13.900;2023-07-09T04:02:52;93543.97;;;14.10;100.00
9738;BME280;4908;47.446;13.900;2023-07-09T04:05:19;93548.59;;;14.24;100.00
9738;BME280;4908;47.446;13.900;2023-07-09T04:07:45;93544.75;;;14.18;100.00
9738;BME280;4908;47.446;13.900;2023-07-09T04:10:14;93546.31;;;14.33;100.00
9738;BME280;4908;47.446;13.900;2023-07-09T04:12:41;93545.53;;;14.50;100.00
9738;BME280;4908;47.446;13.900;2023-07-09T04:15:09;93540.13;;;14.64;100.00
9738;BME280;4908;47.446;13.900;2023-07-09T04:17:38;93543.25;;;14.42;100.00
9738;BME280;4908;47.446;13.900;2023-07-09T04:20:06;93533.94;;;14.67;100.00
9738;BME280;4908;47.446;13.900;2023-07-09T04:22:34;93537.75;;;14.91;100.00
9738;BME280;4908;47.446;13.900;2023-07-09T04:25:02;93542.34;;;15.11;100.00
9738;BME280;4908;47.446;13.900;2023-07-09T04:27:30;93541.53;;;15.21;100.00
9738;BME280;4908;47.446;13.900;2023-07-09T04:29:58;93542.28;;;15.25;100.00
9738;BME280;4908;47.446;13.900;2023-07-09T04:32:24;93541.53;;;15.28;100.00
9738;BME280;4908;47.446;13.900;2023-07-09T04:34:51;93544.19;;;15.43;100.00
9738;BME280;4908;47.446;13.900;2023-07-09T04:37:18;93544.91;;;15.54;100.00
9738;BME280;4908;47.446;13.900;2023-07-09T04:39:45;93544.50;;;15.59;100.00
9738;BME280;4908;47.446;13.900;2023-07-09T04:42:15;93547.53;;;15.71;100.00
9738;BME280;4908;47.446;13.900;2023-07-09T04:44:45;93541.31;;;15.78;100.00
9738;BME280;4908;47.446;13.900;2023-07-09T04:47:12;93542.06;;;15.85;100.00
9738;BME280;4908;47.446;13.900;2023-07-09T04:49:39;93543.53;;;15.93;100.00
9738;BME280;4908;47.446;13.900;2023-07-09T04:52:06;93546.09;;;16.18;100.00
9738;BME280;4908;47.446;13.900;2023-07-09T04:54:39;93537.13;;;16.28;100.00
9738;BME280;4908;47.446;13.900;2023-07-09T04:57:06;93538.19;;;16.41;100.00
9738;BME280;4908;47.446;13.900;2023-07-09T04:59:33;93543.16;;;16.46;100.00
9738;BME280;4908;47.446;13.900;2023-07-09T05:02:01;93541.25;;;16.43;100.00
9738;BME280;4908;47.446;13.900;2023-07-09T05:04:28;93539.28;;;16.51;100.00
9738;BME280;4908;47.446;13.900;2023-07-09T05:06:55;93539.16;;;16.68;100.00
9738;BME280;4908;47.446;13.900;2023-07-09T05:09:21;93547.56;;;16.77;100.00
9738;BME280;4908;47.446;13.900;2023-07-09T05:11:49;93545.22;;;16.79;100.00
9738;BME280;4908;47.446;13.900;2023-07-09T05:14:17;93540.47;;;16.90;100.00
9738;BME280;4908;47.446;13.900;2023-07-09T05:16:44;93543.63;;;16.85;100.00
9738;BME280;4908;47.446;13.900;2023-07-09T05:19:12;93546.47;;;17.09;100.00
9738;BME280;4908;47.446;13.900;2023-07-09T05:21:40;93546.41;;;16.78;100.00
9738;BME280;4908;47.446;13.900;2023-07-09T05:24:07;93549.94;;;16.72;100.00
9738;BME280;4908;47.446;13.900;2023-07-09T05:26:34;93545.25;;;16.76;100.00
9738;BME280;4908;47.446;13.900;2023-07-09T05:29:02;93550.38;;;17.08;100.00
9738;BME280;4908;47.446;13.900;2023-07-09T05:31:29;93555.75;;;17.11;100.00
9738;BME280;4908;47.446;13.900;2023-07-09T05:33:56;93553.31;;;17.20;100.00
9738;BME280;4908;47.446;13.900;2023-07-09T05:36:26;93553.16;;;17.34;100.00
9738;BME280;4908;47.446;13.900;2023-07-09T05:38:53;93555.75;;;17.45;100.00
9738;BME280;4908;47.446;13.900;2023-07-09T05:41:19;93557.59;;;17.55;100.00
9738;BME280;4908;47.446;13.900;2023-07-09T05:43:46;93558.97;;;17.70;100.00
9738;BME280;4908;47.446;13.900;2023-07-09T05:46:13;93559.59;;;17.81;100.00
9738;BME280;4908;47.446;13.900;2023-07-09T05:48:40;93555.16;;;17.94;100.00
9738;BME280;4908;47.446;13.900;2023-07-09T05:51:07;93564.00;;;17.98;100.00
9738;BME280;4908;47.446;13.900;2023-07-09T05:53:35;93562.47;;;17.97;100.00
9738;BME280;4908;47.446;13.900;2023-07-09T05:56:02;93560.44;;;18.05;100.00
9738;BME280;4908;47.446;13.900;2023-07-09T05:58:29;93562.53;;;18.20;100.00
9738;BME280;4908;47.446;13.900;2023-07-09T06:00:56;93565.03;;;18.34;100.00
9738;BME280;4908;47.446;13.900;2023-07-09T06:03:25;93569.66;;;18.37;100.00
9738;BME280;4908;47.446;13.900;2023-07-09T06:05:52;93564.13;;;18.44;100.00
9738;BME280;4908;47.446;13.900;2023-07-09T06:08:19;93563.91;;;18.58;100.00
9738;BME280;4908;47.446;13.900;2023-07-09T06:10:56;93560.34;;;18.65;100.00
9738;BME280;4908;47.446;13.900;2023-07-09T06:13:24;93564.41;;;18.76;100.00
9738;BME280;4908;47.446;13.900;2023-07-09T06:15:53;93558.16;;;18.79;100.00
9738;BME280;4908;47.446;13.900;2023-07-09T06:18:21;93566.72;;;18.78;100.00
9738;BME280;4908;47.446;13.900;2023-07-09T06:20:50;93565.13;;;18.81;100.00
9738;BME280;4908;47.446;13.900;2023-07-09T06:23:17;93563.94;;;18.82;100.00
9738;BME280;4908;47.446;13.900;2023-07-09T06:25:45;93560.13;;;18.99;100.00
9738;BME280;4908;47.446;13.900;2023-07-09T06:28:15;93567.34;;;19.09;100.00
9738;BME280;4908;47.446;13.900;2023-07-09T06:30:42;93576.53;;;19.15;100.00
9738;BME280;4908;47.446;13.900;2023-07-09T06:33:10;93559.09;;;19.16;100.00
9738;BME280;4908;47.446;13.900;2023-07-09T06:35:38;93560.75;;;19.10;100.00
9738;BME280;4908;47.446;13.900;2023-07-09T06:38:05;93570.13;;;19.05;100.00
9738;BME280;4908;47.446;13.900;2023-07-09T06:40:32;93564.22;;;19.30;100.00
9738;BME280;4908;47.446;13.900;2023-07-09T06:43:00;93567.69;;;19.34;100.00
9738;BME280;4908;47.446;13.900;2023-07-09T06:45:28;93567.78;;;19.50;100.00
9738;BME280;4908;47.446;13.900;2023-07-09T06:47:55;93559.97;;;19.52;100.00
9738;BME280;4908;47.446;13.900;2023-07-09T06:50:22;93560.88;;;19.65;100.00
9738;BME280;4908;47.446;13.900;2023-07-09T06:52:49;93558.50;;;19.87;100.00
9738;BME280;4908;47.446;13.900;2023-07-09T06:55:16;93558.41;;;19.90;100.00
9738;BME280;4908;47.446;13.900;2023-07-09T06:57:42;93556.25;;;20.01;100.00
9738;BME280;4908;47.446;13.900;2023-07-09T07:00:10;93558.72;;;20.12;100.00
9738;BME280;4908;47.446;13.900;2023-07-09T07:02:39;93557.00;;;20.21;100.00
9738;BME280;4908;47.446;13.900;2023-07-09T07:05:06;93546.09;;;20.21;100.00
9738;BME280;4908;47.446;13.900;2023-07-09T07:07:32;93555.69;;;20.45;100.00
9738;BME280;4908;47.446;13.900;2023-07-09T07:10:00;93551.09;;;20.75;100.00
9738;BME280;4908;47.446;13.900;2023-07-09T07:12:28;93553.78;;;20.91;100.00
9738;BME280;4908;47.446;13.900;2023-07-09T07:14:55;93549.03;;;20.95;100.00
9738;BME280;4908;47.446;13.900;2023-07-09T07:17:23;93543.16;;;21.12;100.00
9738;BME280;4908;47.446;13.900;2023-07-09T07:19:51;93542.69;;;21.30;100.00
9738;BME280;4908;47.446;13.900;2023-07-09T07:22:18;93536.00;;;21.47;100.00
9738;BME280;4908;47.446;13.900;2023-07-09T07:24:44;93534.03;;;21.48;100.00
9738;BME280;4908;47.446;13.900;2023-07-09T07:27:11;93535.59;;;21.61;100.00
9738;BME280;4908;47.446;13.900;2023-07-09T07:29:38;93534.75;;;21.64;100.00
9738;BME280;4908;47.446;13.900;2023-07-09T07:32:06;93536.72;;;21.76;100.00
9738;BME280;4908;47.446;13.900;2023-07-09T07:34:34;93538.56;;;21.95;100.00
9738;BME280;4908;47.446;13.900;2023-07-09T07:37:02;93535.84;;;21.95;100.00
9738;BME280;4908;47.446;13.900;2023-07-09T07:39:29;93524.59;;;21.93;100.00
9738;BME280;4908;47.446;13.900;2023-07-09T07:41:56;93521.75;;;22.09;100.00
9738;BME280;4908;47.446;13.900;2023-07-09T07:44:23;93523.31;;;22.10;100.00
9738;BME280;4908;47.446;13.900;2023-07-09T07:46:50;93522.22;;;22.20;100.00
9738;BME280;4908;47.446;13.900;2023-07-09T07:49:17;93520.91;;;22.38;100.00
9738;BME280;4908;47.446;13.900;2023-07-09T07:51:44;93522.53;;;22.35;100.00
9738;BME280;4908;47.446;13.900;2023-07-09T07:54:12;93517.63;;;22.68;100.00
9738;BME280;4908;47.446;13.900;2023-07-09T07:56:39;93510.34;;;22.99;100.00
9738;BME280;4908;47.446;13.900;2023-07-09T07:59:06;93512.53;;;23.04;100.00
9738;BME280;4908;47.446;13.900;2023-07-09T08:01:32;93512.75;;;23.09;100.00
9738;BME280;4908;47.446;13.900;2023-07-09T08:04:00;93507.88;;;23.26;100.00
9738;BME280;4908;47.446;13.900;2023-07-09T08:06:27;93505.31;;;23.44;100.00
9738;BME280;4908;47.446;13.900;2023-07-09T08:08:54;93505.69;;;23.55;100.00
9738;BME280;4908;47.446;13.900;2023-07-09T08:11:22;93499.44;;;23.76;100.00
9738;BME280;4908;47.446;13.900;2023-07-09T08:13:50;93494.50;;;23.84;100.00
9738;BME280;4908;47.446;13.900;2023-07-09T08:16:17;93495.00;;;24.13;100.00
9738;BME280;4908;47.446;13.900;2023-07-09T08:18:44;93499.19;;;24.36;100.00
9738;BME280;4908;47.446;13.900;2023-07-09T08:21:11;93490.09;;;24.48;100.00
9738;BME280;4908;47.446;13.900;2023-07-09T08:23:37;93484.00;;;24.44;100.00
9738;BME280;4908;47.446;13.900;2023-07-09T08:26:05;93492.56;;;24.64;100.00
9738;BME280;4908;47.446;13.900;2023-07-09T08:28:34;93481.38;;;24.80;100.00
9738;BME280;4908;47.446;13.900;2023-07-09T08:31:01;93483.66;;;24.81;100.00
9738;BME280;4908;47.446;13.900;2023-07-09T08:33:28;93478.56;;;24.62;100.00
9738;BME280;4908;47.446;13.900;2023-07-09T08:35:55;93475.81;;;24.62;100.00
9738;BME280;4908;47.446;13.900;2023-07-09T08:38:23;93481.38;;;24.80;100.00
9738;BME280;4908;47.446;13.900;2023-07-09T08:41:00;93486.28;;;24.85;100.00
9738;BME280;4908;47.446;13.900;2023-07-09T08:43:36;93487.16;;;24.82;100.00
9738;BME280;4908;47.446;13.900;2023-07-09T08:46:13;93477.13;;;24.88;100.00
9738;BME280;4908;47.446;13.900;2023-07-09T08:48:44;93480.06;;;25.21;100.00
9738;BME280;4908;47.446;13.900;2023-07-09T08:51:17;93480.88;;;25.39;100.00
9738;BME280;4908;47.446;13.900;2023-07-09T08:53:49;93480.88;;;25.39;99.47
9738;BME280;4908;47.446;13.900;2023-07-09T08:56:17;93469.84;;;25.57;100.00
9738;BME280;4908;47.446;13.900;2023-07-09T08:58:46;93479.88;;;25.78;100.00
9738;BME280;4908;47.446;13.900;2023-07-09T09:01:19;93475.59;;;25.96;98.23
9738;BME280;4908;47.446;13.900;2023-07-09T09:03:49;93483.97;;;26.10;98.04
9738;BME280;4908;47.446;13.900;2023-07-09T09:06:19;93473.06;;;26.34;92.86
9738;BME280;4908;47.446;13.900;2023-07-09T09:08:55;93475.81;;;26.34;93.07
9738;BME280;4908;47.446;13.900;2023-07-09T09:11:31;93474.63;;;26.58;84.06
9738;BME280;4908;47.446;13.900;2023-07-09T09:14:16;93470.91;;;26.38;91.46
9738;BME280;4908;47.446;13.900;2023-07-09T09:16:45;93477.84;;;26.57;97.97
9738;BME280;4908;47.446;13.900;2023-07-09T09:19:18;93468.38;;;26.58;92.37
9738;BME280;4908;47.446;13.900;2023-07-09T09:21:47;93473.28;;;26.87;88.25
9738;BME280;4908;47.446;13.900;2023-07-09T09:24:21;93464.25;;;26.86;85.69
9738;BME280;4908;47.446;13.900;2023-07-09T09:26:52;93459.28;;;26.99;85.02
9738;BME280;4908;47.446;13.900;2023-07-09T09:29:25;93459.88;;;27.03;80.44
9738;BME280;4908;47.446;13.900;2023-07-09T09:31:54;93461.09;;;27.02;79.72
9738;BME280;4908;47.446;13.900;2023-07-09T09:34:24;93458.22;;;27.20;70.38
9738;BME280;4908;47.446;13.900;2023-07-09T09:36:53;93453.00;;;27.22;76.03
9738;BME280;4908;47.446;13.900;2023-07-09T09:39:20;93466.84;;;27.37;78.63
9738;BME280;4908;47.446;13.900;2023-07-09T09:41:47;93458.09;;;27.38;65.34
9738;BME280;4908;47.446;13.900;2023-07-09T09:44:18;93451.69;;;27.56;70.23
9738;BME280;4908;47.446;13.900;2023-07-09T09:46:49;93464.38;;;27.54;52.37
9738;BME280;4908;47.446;13.900;2023-07-09T09:49:16;93460.91;;;27.68;55.73
9738;BME280;4908;47.446;13.900;2023-07-09T09:51:46;93451.72;;;27.71;52.49
9738;BME280;4908;47.446;13.900;2023-07-09T09:54:16;93455.50;;;27.88;45.29
9738;BME280;4908;47.446;13.900;2023-07-09T09:56:44;93458.16;;;27.82;50.66
9738;BME280;4908;47.446;13.900;2023-07-09T09:59:18;93450.00;;;27.88;49.05
9738;BME280;4908;47.446;13.900;2023-07-09T10:01:46;93445.25;;;27.88;59.83
9738;BME280;4908;47.446;13.900;2023-07-09T10:04:19;93456.66;;;28.10;49.27
9738;BME280;4908;47.446;13.900;2023-07-09T10:06:47;93452.09;;;28.22;52.44
9738;BME280;4908;47.446;13.900;2023-07-09T10:09:24;93445.72;;;28.16;47.66
9738;BME280;4908;47.446;13.900;2023-07-09T10:11:57;93451.75;;;28.00;51.37
9738;BME280;4908;47.446;13.900;2023-07-09T10:14:46;93453.25;;;28.01;53.36
9738;BME280;4908;47.446;13.900;2023-07-09T10:17:20;93441.22;;;28.33;59.15
9738;BME280;4908;47.446;13.900;2023-07-09T10:19:56;93446.75;;;28.33;47.08
9738;BME280;4908;47.446;13.900;2023-07-09T10:22:39;93442.09;;;28.39;45.74
9738;BME280;4908;47.446;13.900;2023-07-09T10:25:16;93447.69;;;28.59;45.08
9738;BME280;4908;47.446;13.900;2023-07-09T10:27:57;93443.94;;;28.62;42.13
9738;BME280;4908;47.446;13.900;2023-07-09T10:30:41;93435.50;;;28.51;41.88
9738;BME280;4908;47.446;13.900;2023-07-09T10:33:13;93437.34;;;28.40;45.21
9738;BME280;4908;47.446;13.900;2023-07-09T10:35:51;93434.72;;;28.51;48.21
9738;BME280;4908;47.446;13.900;2023-07-09T10:38:34;93439.97;;;28.63;43.37
9738;BME280;4908;47.446;13.900;2023-07-09T10:41:09;93431.69;;;28.63;37.88
9738;BME280;4908;47.446;13.900;2023-07-09T10:43:43;93435.31;;;28.69;39.38
9738;BME280;4908;47.446;13.900;2023-07-09T10:46:13;93432.13;;;28.76;48.09
9738;BME280;4908;47.446;13.900;2023-07-09T10:48:43;93432.16;;;28.96;45.41
9738;BME280;4908;47.446;13.900;2023-07-09T10:51:22;93423.69;;;29.20;48.44
9738;BME280;4908;47.446;13.900;2023-07-09T10:53:56;93423.78;;;29.51;47.18
9738;BME280;4908;47.446;13.900;2023-07-09T10:56:26;93427.88;;;29.81;42.47
9738;BME280;4908;47.446;13.900;2023-07-09T10:58:57;93429.34;;;29.77;42.63
9738;BME280;4908;47.446;13.900;2023-07-09T11:01:31;93436.53;;;29.94;43.89
9738;BME280;4908;47.446;13.900;2023-07-09T11:04:02;93429.38;;;30.08;44.69
9738;BME280;4908;47.446;13.900;2023-07-09T11:06:36;93429.47;;;30.19;39.63
9738;BME280;4908;47.446;13.900;2023-07-09T11:09:09;93428.47;;;30.22;39.31
9738;BME280;4908;47.446;13.900;2023-07-09T11:11:41;93421.44;;;29.90;39.40
9738;BME280;4908;47.446;13.900;2023-07-09T11:14:24;93421.81;;;29.77;39.83
9738;BME280;4908;47.446;13.900;2023-07-09T11:16:55;93417.97;;;29.95;39.05
9738;BME280;4908;47.446;13.900;2023-07-09T11:19:24;93420.63;;;29.84;43.05
9738;BME280;4908;47.446;13.900;2023-07-09T11:22:05;93412.63;;;29.86;38.71
9738;BME280;4908;47.446;13.900;2023-07-09T11:24:36;93410.75;;;30.03;41.11
9738;BME280;4908;47.446;13.900;2023-07-09T11:27:21;93418.69;;;30.52;38.83
9738;BME280;4908;47.446;13.900;2023-07-09T11:29:56;93417.59;;;30.81;38.00
9738;BME280;4908;47.446;13.900;2023-07-09T11:32:24;93413.69;;;30.99;35.33
9738;BME280;4908;47.446;13.900;2023-07-09T11:34:51;93413.44;;;30.97;37.04
9738;BME280;4908;47.446;13.900;2023-07-09T11:37:24;93405.09;;;30.91;40.17
9738;BME280;4908;47.446;13.900;2023-07-09T11:39:51;93410.44;;;31.06;40.94
9738;BME280;4908;47.446;13.900;2023-07-09T11:42:27;93412.56;;;31.33;37.13
9738;BME280;4908;47.446;13.900;2023-07-09T11:44:58;93402.94;;;31.12;33.65
9738;BME280;4908;47.446;13.900;2023-07-09T11:47:31;93407.53;;;31.37;34.76
9738;BME280;4908;47.446;13.900;2023-07-09T11:50:04;93400.56;;;31.47;33.22
9738;BME280;4908;47.446;13.900;2023-07-09T11:52:36;93400.78;;;31.38;33.82
9738;BME280;4908;47.446;13.900;2023-07-09T11:55:20;93391.03;;;31.64;34.68
9738;BME280;4908;47.446;13.900;2023-07-09T11:57:48;93379.47;;;31.88;35.02
9738;BME280;4908;47.446;13.900;2023-07-09T12:00:16;93384.00;;;31.80;33.71
9738;BME280;4908;47.446;13.900;2023-07-09T12:02:43;93391.22;;;31.44;33.75
9738;BME280;4908;47.446;13.900;2023-07-09T12:05:10;93382.84;;;31.28;34.69
9738;BME280;4908;47.446;13.900;2023-07-09T12:07:39;93387.09;;;31.12;35.07
9738;BME280;4908;47.446;13.900;2023-07-09T12:10:18;93390.56;;;31.07;35.96
9738;BME280;4908;47.446;13.900;2023-07-09T12:12:46;93390.25;;;30.88;36.78
9738;BME280;4908;47.446;13.900;2023-07-09T12:15:18;93388.09;;;30.67;35.37
9738;BME280;4908;47.446;13.900;2023-07-09T12:17:54;93380.69;;;29.85;34.58
9738;BME280;4908;47.446;13.900;2023-07-09T12:20:21;93381.50;;;29.91;35.97
9738;BME280;4908;47.446;13.900;2023-07-09T12:22:49;93380.88;;;30.07;34.62
9738;BME280;4908;47.446;13.900;2023-07-09T12:25:22;93383.38;;;30.36;36.03
9738;BME280;4908;47.446;13.900;2023-07-09T12:27:49;93374.28;;;30.72;36.72
9738;BME280;4908;47.446;13.900;2023-07-09T12:30:17;93381.59;;;30.70;34.26
9738;BME280;4908;47.446;13.900;2023-07-09T12:32:44;93371.28;;;30.76;34.30
9738;BME280;4908;47.446;13.900;2023-07-09T12:35:13;93376.69;;;30.90;31.92
9738;BME280;4908;47.446;13.900;2023-07-09T12:37:41;93369.97;;;30.60;33.85
9738;BME280;4908;47.446;13.900;2023-07-09T12:40:15;93368.03;;;30.77;32.36
9738;BME280;4908;47.446;13.900;2023-07-09T12:42:43;93366.94;;;31.06;34.95
9738;BME280;4908;47.446;13.900;2023-07-09T12:45:18;93366.31;;;31.50;33.39
9738;BME280;4908;47.446;13.900;2023-07-09T12:47:46;93365.75;;;31.35;31.51
9738;BME280;4908;47.446;13.900;2023-07-09T12:50:27;93358.72;;;31.34;31.45
9738;BME280;4908;47.446;13.900;2023-07-09T12:52:56;93357.25;;;31.44;32.82
9738;BME280;4908;47.446;13.900;2023-07-09T12:55:26;93361.03;;;31.52;29.60
9738;BME280;4908;47.446;13.900;2023-07-09T12:57:55;93356.25;;;31.58;31.47
9738;BME280;4908;47.446;13.900;2023-07-09T13:00:26;93356.28;;;31.80;29.74
9738;BME280;4908;47.446;13.900;2023-07-09T13:02:55;93361.34;;;32.31;29.24
9738;BME280;4908;47.446;13.900;2023-07-09T13:05:26;93346.19;;;32.43;27.38
9738;BME280;4908;47.446;13.900;2023-07-09T13:07:54;93349.25;;;32.56;29.42
9738;BME280;4908;47.446;13.900;2023-07-09T13:10:27;93348.41;;;32.84;30.54
9738;BME280;4908;47.446;13.900;2023-07-09T13:12:56;93357.31;;;32.54;28.23
9738;BME280;4908;47.446;13.900;2023-07-09T13:15:26;93354.81;;;32.12;27.46